sensor_id;sensor_type;location;lat;lon;timestamp;pressure;altitude;pressure_sealevel;temperature;humidity
32324;BME280;25666;44.350;9.222;2023-12-20T00:00:02;102003.13;;;8.96;100.00
32324;BME280;25666;44.350;9.222;2023-12-20T00:02:30;102000.66;;;8.94;100.00
32324;BME280;25666;44.350;9.222;2023-12-20T00:04:55;101996.44;;;8.97;100.00
32324;BME280;25666;44.350;9.222;2023-12-20T00:07:21;102005.59;;;8.97;100.00
32324;BME280;25666;44.350;9.222;2023-12-20T00:09:47;101995.13;;;8.94;100.00
32324;BME280;25666;44.350;9.222;2023-12-20T00:12:12;101996.66;;;9.00;100.00
32324;BME280;25666;44.350;9.222;2023-12-20T00:14:38;101989.34;;;9.04;100.00
32324;BME280;25666;44.350;9.222;2023-12-20T00:17:04;101991.81;;;9.06;100.00
32324;BME280;25666;44.350;9.222;2023-12-20T00:19:29;101994.59;;;9.06;100.00
32324;BME280;25666;44.350;9.222;2023-12-20T00:21:58;101992.13;;;9.04;100.00
32324;BME280;25666;44.350;9.222;2023-12-20T00:24:25;101982.03;;;9.08;100.00
32324;BME280;25666;44.350;9.222;2023-12-20T00:26:51;101976.47;;;9.08;100.00
32324;BME280;25666;44.350;9.222;2023-12-20T00:29:17;101967.97;;;9.05;100.00
32324;BME280;25666;44.350;9.222;2023-12-20T00:31:42;101962.91;;;9.07;100.00
32324;BME280;25666;44.350;9.222;2023-12-20T00:34:08;101961.97;;;9.11;100.00
32324;BME280;25666;44.350;9.222;2023-12-20T00:36:34;101953.53;;;9.17;100.00
32324;BME280;25666;44.350;9.222;2023-12-20T00:39:02;101946.53;;;9.19;100.00
32324;BME280;25666;44.350;9.222;2023-12-20T00:41:29;101942.03;;;9.09;100.00
32324;BME280;25666;44.350;9.222;2023-12-20T00:43:54;101936.97;;;9.11;100.00
32324;BME280;25666;44.350;9.222;2023-12-20T00:46:22;101929.25;;;9.08;100.00
32324;BME280;25666;44.350;9.222;2023-12-20T00:48:48;101929.59;;;9.07;100.00
32324;BME280;25666;44.350;9.222;2023-12-20T00:51:13;101919.09;;;9.04;100.00
32324;BME280;25666;44.350;9.222;2023-12-20T00:53:39;101909.13;;;9.03;100.00
32324;BME280;25666;44.350;9.222;2023-12-20T00:56:04;101903.13;;;9.09;100.00
32324;BME280;25666;44.350;9.222;2023-12-20T00:58:30;101896.75;;;9.09;100.00
32324;BME280;25666;44.350;9.222;2023-12-20T01:00:55;101888.44;;;9.09;100.00
32324;BME280;25666;44.350;9.222;2023-12-20T01:03:21;101879.16;;;9.13;100.00
32324;BME280;25666;44.350;9.222;2023-12-20T01:05:46;101879.47;;;9.12;100.00
32324;BME280;25666;44.350;9.222;2023-12-20T01:08:12;101874.53;;;9.09;100.00
32324;BME280;25666;44.350;9.222;2023-12-20T01:10:38;101872.78;;;9.13;100.00
32324;BME280;25666;44.350;9.222;2023-12-20T01:13:03;101870.50;;;9.15;100.00
32324;BME280;25666;44.350;9.222;2023-12-20T01:15:29;101865.16;;;9.19;100.00
32324;BME280;25666;44.350;9.222;2023-12-20T01:17:54;101865.03;;;9.24;100.00
32324;BME280;25666;44.350;9.222;2023-12-20T01:20:22;101867.81;;;9.24;100.00
32324;BME280;25666;44.350;9.222;2023-12-20T01:22:48;101863.06;;;9.24;100.00
32324;BME280;25666;44.350;9.222;2023-12-20T01:25:14;101865.84;;;9.24;100.00
32324;BME280;25666;44.350;9.222;2023-12-20T01:27:39;101861.13;;;9.25;100.00
32324;BME280;25666;44.350;9.222;2023-12-20T01:30:05;101861.44;;;9.23;100.00
32324;BME280;25666;44.350;9.222;2023-12-20T01:32:31;101864.91;;;9.29;100.00
32324;BME280;25666;44.350;9.222;2023-12-20T01:34:57;101864.47;;;9.35;100.00
32324;BME280;25666;44.350;9.222;2023-12-20T01:37:22;101858.53;;;9.28;100.00
32324;BME280;25666;44.350;9.222;2023-12-20T01:39:50;101864.63;;;9.30;100.00
32324;BME280;25666;44.350;9.222;2023-12-20T01:42:16;101857.78;;;9.36;100.00
32324;BME280;25666;44.350;9.222;2023-12-20T01:44:41;101858.59;;;9.37;100.00
32324;BME280;25666;44.350;9.222;2023-12-20T01:47:09;101856.34;;;9.39;100.00
32324;BME280;25666;44.350;9.222;2023-12-20T01:49:35;101844.69;;;9.37;100.00
32324;BME280;25666;44.350;9.222;2023-12-20T01:52:01;101852.03;;;9.33;100.00
32324;BME280;25666;44.350;9.222;2023-12-20T01:54:26;101839.78;;;9.34;100.00
32324;BME280;25666;44.350;9.222;2023-12-20T01:56:52;101832.47;;;9.38;100.00
32324;BME280;25666;44.350;9.222;2023-12-20T01:59:19;101827.72;;;9.38;100.00
32324;BME280;25666;44.350;9.222;2023-12-20T02:01:45;101828.59;;;9.25;100.00
32324;BME280;25666;44.350;9.222;2023-12-20T02:04:11;101823.63;;;9.36;100.00
32324;BME280;25666;44.350;9.222;2023-12-20T02:06:38;101829.47;;;9.34;100.00
32324;BME280;25666;44.350;9.222;2023-12-20T02:09:05;101831.56;;;9.29;100.00
32324;BME280;25666;44.350;9.222;2023-12-20T02:11:33;101838.78;;;9.30;100.00
32324;BME280;25666;44.350;9.222;2023-12-20T02:13:58;101851.03;;;9.29;100.00
32324;BME280;25666;44.350;9.222;2023-12-20T02:16:24;101842.19;;;9.27;100.00
32324;BME280;25666;44.350;9.222;2023-12-20T02:18:50;101849.06;;;9.29;100.00
32324;BME280;25666;44.350;9.222;2023-12-20T02:21:15;101849.50;;;9.23;100.00
32324;BME280;25666;44.350;9.222;2023-12-20T02:23:41;101841.22;;;9.31;100.00
32324;BME280;25666;44.350;9.222;2023-12-20T02:26:07;101839.28;;;9.32;100.00
32324;BME280;25666;44.350;9.222;2023-12-20T02:28:33;101837.31;;;9.32;100.00
32324;BME280;25666;44.350;9.222;2023-12-20T02:30:59;101834.53;;;9.32;100.00
32324;BME280;25666;44.350;9.222;2023-12-20T02:33:25;101828.84;;;9.37;100.00
32324;BME280;25666;44.350;9.222;2023-12-20T02:35:50;101828.56;;;9.39;100.00
32324;BME280;25666;44.350;9.222;2023-12-20T02:38:18;101824.75;;;9.35;100.00
32324;BME280;25666;44.350;9.222;2023-12-20T02:40:43;101808.56;;;9.37;100.00
32324;BME280;25666;44.350;9.222;2023-12-20T02:43:09;101796.34;;;9.38;100.00
32324;BME280;25666;44.350;9.222;2023-12-20T02:45:34;101797.16;;;9.38;100.00
32324;BME280;25666;44.350;9.222;2023-12-20T02:48:00;101785.38;;;9.33;100.00
32324;BME280;25666;44.350;9.222;2023-12-20T02:50:25;101792.69;;;9.29;100.00
32324;BME280;25666;44.350;9.222;2023-12-20T02:52:51;101791.81;;;9.20;100.00
32324;BME280;25666;44.350;9.222;2023-12-20T02:55:16;101778.84;;;9.15;100.00
32324;BME280;25666;44.350;9.222;2023-12-20T02:57:42;101773.63;;;9.13;100.00
32324;BME280;25666;44.350;9.222;2023-12-20T03:00:10;101772.59;;;9.09;100.00
32324;BME280;25666;44.350;9.222;2023-12-20T03:02:36;101765.41;;;9.08;100.00
32324;BME280;25666;44.350;9.222;2023-12-20T03:05:02;101764.59;;;9.08;100.00
32324;BME280;25666;44.350;9.222;2023-12-20T03:07:28;101761.31;;;9.06;100.00
32324;BME280;25666;44.350;9.222;2023-12-20T03:09:54;101773.19;;;8.98;100.00
32324;BME280;25666;44.350;9.222;2023-12-20T03:12:19;101770.25;;;9.03;100.00
32324;BME280;25666;44.350;9.222;2023-12-20T03:14:45;101771.22;;;8.98;100.00
32324;BME280;25666;44.350;9.222;2023-12-20T03:17:10;101773.03;;;9.03;100.00
32324;BME280;25666;44.350;9.222;2023-12-20T03:19:36;101767.91;;;8.96;100.00
32324;BME280;25666;44.350;9.222;2023-12-20T03:22:01;101760.13;;;8.98;100.00
32324;BME280;25666;44.350;9.222;2023-12-20T03:24:27;101742.31;;;8.99;100.00
32324;BME280;25666;44.350;9.222;2023-12-20T03:26:53;101739.09;;;9.06;100.00
32324;BME280;25666;44.350;9.222;2023-12-20T03:29:18;101731.28;;;9.08;100.00
32324;BME280;25666;44.350;9.222;2023-12-20T03:31:44;101731.78;;;9.10;100.00
32324;BME280;25666;44.350;9.222;2023-12-20T03:34:09;101729.94;;;9.05;100.00
32324;BME280;25666;44.350;9.222;2023-12-20T03:36:35;101737.31;;;9.10;100.00
32324;BME280;25666;44.350;9.222;2023-12-20T03:39:01;101716.88;;;9.06;100.00
32324;BME280;25666;44.350;9.222;2023-12-20T03:41:26;101711.66;;;9.04;100.00
32324;BME280;25666;44.350;9.222;2023-12-20T03:43:52;101711.94;;;9.03;100.00
32324;BME280;25666;44.350;9.222;2023-12-20T03:46:17;101707.22;;;9.03;100.00
32324;BME280;25666;44.350;9.222;2023-12-20T03:48:43;101713.25;;;9.05;100.00
32324;BME280;25666;44.350;9.222;2023-12-20T03:51:08;101706.38;;;9.03;100.00
32324;BME280;25666;44.350;9.222;2023-12-20T03:53:34;101705.03;;;8.92;100.00
32324;BME280;25666;44.350;9.222;2023-12-20T03:55:59;101705.13;;;8.87;100.00
32324;BME280;25666;44.350;9.222;2023-12-20T03:58:25;101709.56;;;8.88;100.00
32324;BME280;25666;44.350;9.222;2023-12-20T04:00:50;101706.09;;;8.82;100.00
32324;BME280;25666;44.350;9.222;2023-12-20T04:03:16;101712.56;;;8.78;100.00
32324;BME280;25666;44.350;9.222;2023-12-20T04:05:42;101704.25;;;8.78;100.00
32324;BME280;25666;44.350;9.222;2023-12-20T04:08:07;101698.88;;;8.81;100.00
32324;BME280;25666;44.350;9.222;2023-12-20T04:10:33;101697.63;;;8.87;100.00
32324;BME280;25666;44.350;9.222;2023-12-20T04:12:58;101701.38;;;8.83;100.00
32324;BME280;25666;44.350;9.222;2023-12-20T04:15:24;101696.63;;;8.83;100.00
32324;BME280;25666;44.350;9.222;2023-12-20T04:17:50;101691.78;;;8.89;100.00
32324;BME280;25666;44.350;9.222;2023-12-20T04:20:15;101697.38;;;8.97;100.00
32324;BME280;25666;44.350;9.222;2023-12-20T04:22:40;101696.75;;;9.00;100.00
32324;BME280;25666;44.350;9.222;2023-12-20T04:25:08;101688.91;;;9.02;100.00
32324;BME280;25666;44.350;9.222;2023-12-20T04:27:33;101683.06;;;9.04;100.00
32324;BME280;25666;44.350;9.222;2023-12-20T04:29:59;101679.00;;;9.10;100.00
32324;BME280;25666;44.350;9.222;2023-12-20T04:32:24;101672.88;;;8.99;100.00
32324;BME280;25666;44.350;9.222;2023-12-20T04:34:50;101673.06;;;9.03;100.00
32324;BME280;25666;44.350;9.222;2023-12-20T04:37:15;101669.34;;;9.07;100.00
32324;BME280;25666;44.350;9.222;2023-12-20T04:39:41;101669.53;;;9.11;100.00
32324;BME280;25666;44.350;9.222;2023-12-20T04:42:07;101665.75;;;9.07;100.00
32324;BME280;25666;44.350;9.222;2023-12-20T04:44:32;101672.38;;;8.97;100.00
32324;BME280;25666;44.350;9.222;2023-12-20T04:46:58;101664.75;;;9.03;100.00
32324;BME280;25666;44.350;9.222;2023-12-20T04:49:23;101667.22;;;9.04;100.00
32324;BME280;25666;44.350;9.222;2023-12-20T04:51:49;101655.28;;;9.04;100.00
32324;BME280;25666;44.350;9.222;2023-12-20T04:54:15;101663.63;;;9.04;100.00
32324;BME280;25666;44.350;9.222;2023-12-20T04:56:41;101646.81;;;9.09;100.00
32324;BME280;25666;44.350;9.222;2023-12-20T04:59:07;101647.59;;;9.01;100.00
32324;BME280;25666;44.350;9.222;2023-12-20T05:01:32;101635.16;;;8.98;100.00
32324;BME280;25666;44.350;9.222;2023-12-20T05:03:58;101630.94;;;9.01;100.00
32324;BME280;25666;44.350;9.222;2023-12-20T05:06:23;101632.56;;;9.02;100.00
32324;BME280;25666;44.350;9.222;2023-12-20T05:08:50;101640.63;;;8.90;100.00
32324;BME280;25666;44.350;9.222;2023-12-20T05:11:15;101642.25;;;8.82;100.00
32324;BME280;25666;44.350;9.222;2023-12-20T05:13:41;101633.41;;;8.80;100.00
32324;BME280;25666;44.350;9.222;2023-12-20T05:16:07;101634.22;;;8.81;100.00
32324;BME280;25666;44.350;9.222;2023-12-20T05:18:34;101619.34;;;8.77;100.00
32324;BME280;25666;44.350;9.222;2023-12-20T05:20:59;101615.56;;;8.73;100.00
32324;BME280;25666;44.350;9.222;2023-12-20T05:23:25;101615.72;;;8.68;100.00
32324;BME280;25666;44.350;9.222;2023-12-20T05:25:51;101620.63;;;8.71;100.00
32324;BME280;25666;44.350;9.222;2023-12-20T05:28:16;101625.53;;;8.74;100.00
32324;BME280;25666;44.350;9.222;2023-12-20T05:30:42;101621.78;;;8.78;100.00
32324;BME280;25666;44.350;9.222;2023-12-20T05:33:08;101635.88;;;8.82;100.00
32324;BME280;25666;44.350;9.222;2023-12-20T05:35:34;101634.22;;;8.81;100.00
32324;BME280;25666;44.350;9.222;2023-12-20T05:38:00;101629.19;;;8.83;100.00
32324;BME280;25666;44.350;9.222;2023-12-20T05:40:25;101622.63;;;8.79;100.00
32324;BME280;25666;44.350;9.222;2023-12-20T05:42:51;101625.88;;;8.81;100.00
32324;BME280;25666;44.350;9.222;2023-12-20T05:45:16;101625.06;;;8.80;100.00
32324;BME280;25666;44.350;9.222;2023-12-20T05:47:42;101617.22;;;8.74;100.00
32324;BME280;25666;44.350;9.222;2023-12-20T05:50:08;101621.59;;;8.75;100.00
32324;BME280;25666;44.350;9.222;2023-12-20T05:52:34;101615.50;;;8.86;100.00
32324;BME280;25666;44.350;9.222;2023-12-20T05:54:59;101614.69;;;8.86;100.00
32324;BME280;25666;44.350;9.222;2023-12-20T05:57:27;101609.22;;;8.81;100.00
32324;BME280;25666;44.350;9.222;2023-12-20T05:59:52;101601.53;;;8.78;100.00
32324;BME280;25666;44.350;9.222;2023-12-20T06:02:18;101606.59;;;8.76;100.00
32324;BME280;25666;44.350;9.222;2023-12-20T06:04:44;101590.97;;;8.80;100.00
32324;BME280;25666;44.350;9.222;2023-12-20T06:07:13;101594.22;;;8.82;100.00
32324;BME280;25666;44.350;9.222;2023-12-20T06:09:39;101592.53;;;8.72;100.00
32324;BME280;25666;44.350;9.222;2023-12-20T06:12:05;101582.56;;;8.71;100.00
32324;BME280;25666;44.350;9.222;2023-12-20T06:14:31;101585.66;;;8.70;100.00
32324;BME280;25666;44.350;9.222;2023-12-20T06:16:57;101579.28;;;8.69;100.00
32324;BME280;25666;44.350;9.222;2023-12-20T06:19:23;101575.00;;;8.63;100.00
32324;BME280;25666;44.350;9.222;2023-12-20T06:21:48;101574.34;;;8.57;100.00
32324;BME280;25666;44.350;9.222;2023-12-20T06:24:14;101566.13;;;8.52;100.00
32324;BME280;25666;44.350;9.222;2023-12-20T06:26:39;101568.53;;;8.45;100.00
32324;BME280;25666;44.350;9.222;2023-12-20T06:29:05;101572.63;;;8.48;100.00
32324;BME280;25666;44.350;9.222;2023-12-20T06:31:30;101569.41;;;8.54;100.00
32324;BME280;25666;44.350;9.222;2023-12-20T06:33:58;101572.00;;;8.51;100.00
32324;BME280;25666;44.350;9.222;2023-12-20T06:36:25;101575.22;;;8.44;100.00
32324;BME280;25666;44.350;9.222;2023-12-20T06:38:51;101577.31;;;8.39;100.00
32324;BME280;25666;44.350;9.222;2023-12-20T06:41:17;101578.00;;;8.44;100.00
32324;BME280;25666;44.350;9.222;2023-12-20T06:43:43;101577.84;;;8.49;100.00
32324;BME280;25666;44.350;9.222;2023-12-20T06:46:09;101578.03;;;8.53;100.00
32324;BME280;25666;44.350;9.222;2023-12-20T06:48:35;101568.91;;;8.52;100.00
32324;BME280;25666;44.350;9.222;2023-12-20T06:51:01;101575.31;;;8.61;100.00
32324;BME280;25666;44.350;9.222;2023-12-20T06:53:30;101576.72;;;8.73;100.00
32324;BME280;25666;44.350;9.222;2023-12-20T06:55:56;101579.22;;;8.83;100.00
32324;BME280;25666;44.350;9.222;2023-12-20T06:58:22;101579.97;;;8.75;100.00
32324;BME280;25666;44.350;9.222;2023-12-20T07:00:48;101579.63;;;8.68;100.00
32324;BME280;25666;44.350;9.222;2023-12-20T07:03:13;101583.34;;;8.63;100.00
32324;BME280;25666;44.350;9.222;2023-12-20T07:05:39;101588.75;;;8.68;100.00
32324;BME280;25666;44.350;9.222;2023-12-20T07:08:06;101583.00;;;8.65;100.00
32324;BME280;25666;44.350;9.222;2023-12-20T07:10:32;101582.84;;;8.61;100.00
32324;BME280;25666;44.350;9.222;2023-12-20T07:12:57;101590.66;;;8.59;100.00
32324;BME280;25666;44.350;9.222;2023-12-20T07:15:23;101597.53;;;8.61;100.00
32324;BME280;25666;44.350;9.222;2023-12-20T07:17:48;101589.53;;;8.60;100.00
32324;BME280;25666;44.350;9.222;2023-12-20T07:20:14;101585.09;;;8.59;100.00
32324;BME280;25666;44.350;9.222;2023-12-20T07:22:39;101583.84;;;8.65;100.00
32324;BME280;25666;44.350;9.222;2023-12-20T07:25:05;101576.44;;;8.83;100.00
32324;BME280;25666;44.350;9.222;2023-12-20T07:27:31;101572.22;;;8.85;100.00
32324;BME280;25666;44.350;9.222;2023-12-20T07:29:57;101576.63;;;8.86;100.00
32324;BME280;25666;44.350;9.222;2023-12-20T07:32:22;101579.94;;;8.97;100.00
32324;BME280;25666;44.350;9.222;2023-12-20T07:34:48;101571.78;;;9.00;100.00
32324;BME280;25666;44.350;9.222;2023-12-20T07:37:13;101563.94;;;9.02;100.00
32324;BME280;25666;44.350;9.222;2023-12-20T07:39:39;101561.03;;;9.07;100.00
32324;BME280;25666;44.350;9.222;2023-12-20T07:42:06;101545.34;;;9.03;100.00
32324;BME280;25666;44.350;9.222;2023-12-20T07:44:31;101555.28;;;8.95;100.00
32324;BME280;25666;44.350;9.222;2023-12-20T07:46:57;101557.69;;;8.88;100.00
32324;BME280;25666;44.350;9.222;2023-12-20T07:49:23;101560.47;;;8.88;100.00
32324;BME280;25666;44.350;9.222;2023-12-20T07:51:48;101569.66;;;8.97;100.00
32324;BME280;25666;44.350;9.222;2023-12-20T07:54:15;101563.16;;;9.02;100.00
32324;BME280;25666;44.350;9.222;2023-12-20T07:56:41;101561.53;;;9.09;100.00
32324;BME280;25666;44.350;9.222;2023-12-20T07:59:07;101569.50;;;9.02;100.00
32324;BME280;25666;44.350;9.222;2023-12-20T08:01:32;101558.72;;;9.01;100.00
32324;BME280;25666;44.350;9.222;2023-12-20T08:03:58;101562.72;;;9.17;100.00
32324;BME280;25666;44.350;9.222;2023-12-20T08:06:23;101553.75;;;9.29;100.00
32324;BME280;25666;44.350;9.222;2023-12-20T08:08:49;101552.63;;;9.30;100.00
32324;BME280;25666;44.350;9.222;2023-12-20T08:11:15;101555.91;;;9.32;100.00
32324;BME280;25666;44.350;9.222;2023-12-20T08:13:40;101556.28;;;9.47;100.00
32324;BME280;25666;44.350;9.222;2023-12-20T08:16:06;101547.28;;;9.42;100.00
32324;BME280;25666;44.350;9.222;2023-12-20T08:18:31;101546.81;;;9.48;100.00
32324;BME280;25666;44.350;9.222;2023-12-20T08:20:57;101545.81;;;9.53;100.00
32324;BME280;25666;44.350;9.222;2023-12-20T08:23:22;101538.94;;;9.50;100.00
32324;BME280;25666;44.350;9.222;2023-12-20T08:25:49;101543.84;;;9.45;100.00
32324;BME280;25666;44.350;9.222;2023-12-20T08:28:14;101538.31;;;9.53;100.00
32324;BME280;25666;44.350;9.222;2023-12-20T08:30:40;101531.78;;;9.58;100.00
32324;BME280;25666;44.350;9.222;2023-12-20T08:33:06;101533.41;;;9.59;100.00
32324;BME280;25666;44.350;9.222;2023-12-20T08:35:36;101544.19;;;9.52;100.00
32324;BME280;25666;44.350;9.222;2023-12-20T08:38:02;101544.03;;;9.48;100.00
32324;BME280;25666;44.350;9.222;2023-12-20T08:40:29;101543.56;;;9.55;100.00
32324;BME280;25666;44.350;9.222;2023-12-20T08:42:55;101544.69;;;9.54;100.00
32324;BME280;25666;44.350;9.222;2023-12-20T08:45:20;101538.97;;;9.59;100.00
32324;BME280;25666;44.350;9.222;2023-12-20T08:47:46;101538.31;;;9.62;100.00
32324;BME280;25666;44.350;9.222;2023-12-20T08:50:11;101529.50;;;9.68;100.00
32324;BME280;25666;44.350;9.222;2023-12-20T08:52:37;101522.47;;;9.80;100.00
32324;BME280;25666;44.350;9.222;2023-12-20T08:55:03;101520.34;;;9.85;100.00
32324;BME280;25666;44.350;9.222;2023-12-20T08:57:28;101517.75;;;9.89;100.00
32324;BME280;25666;44.350;9.222;2023-12-20T08:59:54;101516.44;;;9.95;100.00
32324;BME280;25666;44.350;9.222;2023-12-20T09:02:19;101514.13;;;9.97;100.00
32324;BME280;25666;44.350;9.222;2023-12-20T09:04:45;101524.44;;;10.05;100.00
32324;BME280;25666;44.350;9.222;2023-12-20T09:07:26;101524.09;;;10.06;100.00
32324;BME280;25666;44.350;9.222;2023-12-20T09:09:52;101526.75;;;10.11;100.00
32324;BME280;25666;44.350;9.222;2023-12-20T09:12:19;101537.34;;;10.09;100.00
32324;BME280;25666;44.350;9.222;2023-12-20T09:14:49;101528.69;;;10.11;100.00
32324;BME280;25666;44.350;9.222;2023-12-20T09:17:16;101530.19;;;10.08;100.00
32324;BME280;25666;44.350;9.222;2023-12-20T09:19:43;101529.03;;;10.01;100.00
32324;BME280;25666;44.350;9.222;2023-12-20T09:22:12;101533.44;;;10.10;100.00
32324;BME280;25666;44.350;9.222;2023-12-20T09:24:38;101526.56;;;10.08;100.00
32324;BME280;25666;44.350;9.222;2023-12-20T09:27:06;101529.38;;;10.16;100.00
32324;BME280;25666;44.350;9.222;2023-12-20T09:29:32;101524.63;;;10.17;100.00
32324;BME280;25666;44.350;9.222;2023-12-20T09:31:58;101524.16;;;10.24;100.00
32324;BME280;25666;44.350;9.222;2023-12-20T09:34:23;101519.69;;;10.31;100.00
32324;BME280;25666;44.350;9.222;2023-12-20T09:36:51;101528.38;;;10.38;100.00
32324;BME280;25666;44.350;9.222;2023-12-20T09:39:18;101520.81;;;10.47;100.00
32324;BME280;25666;44.350;9.222;2023-12-20T09:42:06;101507.22;;;10.54;100.00
32324;BME280;25666;44.350;9.222;2023-12-20T09:44:33;101500.97;;;10.57;100.00
32324;BME280;25666;44.350;9.222;2023-12-20T09:47:03;101503.28;;;10.55;100.00
32324;BME280;25666;44.350;9.222;2023-12-20T09:49:30;101502.31;;;10.51;100.00
32324;BME280;25666;44.350;9.222;2023-12-20T09:51:56;101493.63;;;10.53;100.00
32324;BME280;25666;44.350;9.222;2023-12-20T09:54:22;101494.28;;;10.58;100.00
32324;BME280;25666;44.350;9.222;2023-12-20T09:56:49;101496.41;;;10.53;100.00
32324;BME280;25666;44.350;9.222;2023-12-20T09:59:15;101491.84;;;10.48;100.00
32324;BME280;25666;44.350;9.222;2023-12-20T10:01:41;101491.34;;;10.55;100.00
32324;BME280;25666;44.350;9.222;2023-12-20T10:04:12;101487.38;;;10.64;100.00
32324;BME280;25666;44.350;9.222;2023-12-20T10:06:44;101494.56;;;10.65;100.00
32324;BME280;25666;44.350;9.222;2023-12-20T10:09:11;101481.16;;;10.67;100.00
32324;BME280;25666;44.350;9.222;2023-12-20T10:11:37;101484.72;;;10.77;100.00
32324;BME280;25666;44.350;9.222;2023-12-20T10:14:04;101485.50;;;10.86;100.00
32324;BME280;25666;44.350;9.222;2023-12-20T10:16:30;101485.34;;;10.82;100.00
32324;BME280;25666;44.350;9.222;2023-12-20T10:18:56;101474.19;;;10.82;100.00
32324;BME280;25666;44.350;9.222;2023-12-20T10:21:22;101472.19;;;10.91;100.00
32324;BME280;25666;44.350;9.222;2023-12-20T10:23:48;101468.72;;;10.94;100.00
32324;BME280;25666;44.350;9.222;2023-12-20T10:26:26;101475.91;;;11.04;100.00
32324;BME280;25666;44.350;9.222;2023-12-20T10:28:56;101474.91;;;11.08;100.00
32324;BME280;25666;44.350;9.222;2023-12-20T10:31:32;101479.94;;;11.15;100.00
32324;BME280;25666;44.350;9.222;2023-12-20T10:33:59;101473.19;;;11.16;100.00
32324;BME280;25666;44.350;9.222;2023-12-20T10:36:27;101470.34;;;11.24;100.00
32324;BME280;25666;44.350;9.222;2023-12-20T10:38:53;101463.94;;;11.33;100.00
32324;BME280;25666;44.350;9.222;2023-12-20T10:41:27;101460.94;;;11.38;100.00
32324;BME280;25666;44.350;9.222;2023-12-20T10:43:56;101448.56;;;11.47;100.00
32324;BME280;25666;44.350;9.222;2023-12-20T10:46:22;101436.88;;;11.54;100.00
32324;BME280;25666;44.350;9.222;2023-12-20T10:48:50;101434.22;;;11.57;100.00
32324;BME280;25666;44.350;9.222;2023-12-20T10:51:21;101436.47;;;11.64;100.00
32324;BME280;25666;44.350;9.222;2023-12-20T10:53:48;101435.44;;;11.68;100.00
32324;BME280;25666;44.350;9.222;2023-12-20T10:56:16;101444.31;;;11.70;100.00
32324;BME280;25666;44.350;9.222;2023-12-20T10:58:46;101442.81;;;11.73;100.00
32324;BME280;25666;44.350;9.222;2023-12-20T11:01:14;101436.22;;;11.77;100.00
32324;BME280;25666;44.350;9.222;2023-12-20T11:03:52;101419.28;;;11.82;100.00
32324;BME280;25666;44.350;9.222;2023-12-20T11:06:58;101413.75;;;11.95;100.00
32324;BME280;25666;44.350;9.222;2023-12-20T11:09:31;101403.16;;;12.00;100.00
32324;BME280;25666;44.350;9.222;2023-12-20T11:12:10;101406.34;;;12.11;100.00
32324;BME280;25666;44.350;9.222;2023-12-20T11:17:32;101392.88;;;12.13;100.00
32324;BME280;25666;44.350;9.222;2023-12-20T11:22:29;101389.25;;;12.12;100.00
32324;BME280;25666;44.350;9.222;2023-12-20T11:25:07;101391.47;;;12.19;100.00
32324;BME280;25666;44.350;9.222;2023-12-20T11:27:40;101374.88;;;12.22;100.00
32324;BME280;25666;44.350;9.222;2023-12-20T11:30:07;101384.50;;;12.25;100.00
32324;BME280;25666;44.350;9.222;2023-12-20T11:32:35;101374.28;;;12.29;100.00
32324;BME280;25666;44.350;9.222;2023-12-20T11:35:17;101375.44;;;12.28;100.00
32324;BME280;25666;44.350;9.222;2023-12-20T11:37:44;101368.38;;;12.30;100.00
32324;BME280;25666;44.350;9.222;2023-12-20T11:40:15;101370.94;;;12.35;100.00
32324;BME280;25666;44.350;9.222;2023-12-20T11:42:43;101373.16;;;12.42;100.00
32324;BME280;25666;44.350;9.222;2023-12-20T11:45:10;101364.53;;;12.47;100.00
32324;BME280;25666;44.350;9.222;2023-12-20T11:47:36;101377.81;;;12.50;100.00
32324;BME280;25666;44.350;9.222;2023-12-20T11:50:02;101374.31;;;12.53;100.00
32324;BME280;25666;44.350;9.222;2023-12-20T11:52:29;101372.13;;;12.59;100.00
32324;BME280;25666;44.350;9.222;2023-12-20T11:54:55;101363.38;;;12.60;100.00
32324;BME280;25666;44.350;9.222;2023-12-20T11:57:21;101357.09;;;12.63;100.00
32324;BME280;25666;44.350;9.222;2023-12-20T11:59:46;101362.44;;;12.56;100.00
32324;BME280;25666;44.350;9.222;2023-12-20T12:02:12;101352.91;;;12.57;100.00
32324;BME280;25666;44.350;9.222;2023-12-20T12:04:38;101352.22;;;12.60;100.00
32324;BME280;25666;44.350;9.222;2023-12-20T12:07:03;101347.78;;;12.59;100.00
32324;BME280;25666;44.350;9.222;2023-12-20T12:09:29;101344.78;;;12.64;100.00
32324;BME280;25666;44.350;9.222;2023-12-20T12:11:58;101337.78;;;12.70;100.00
32324;BME280;25666;44.350;9.222;2023-12-20T12:14:24;101333.03;;;12.71;100.00
32324;BME280;25666;44.350;9.222;2023-12-20T12:16:50;101336.50;;;12.80;100.00
32324;BME280;25666;44.350;9.222;2023-12-20T12:19:22;101317.88;;;12.84;100.00
32324;BME280;25666;44.350;9.222;2023-12-20T12:22:13;101325.63;;;12.90;100.00
32324;BME280;25666;44.350;9.222;2023-12-20T12:24:48;101321.91;;;12.99;100.00
32324;BME280;25666;44.350;9.222;2023-12-20T12:27:17;101322.03;;;13.02;100.00
32324;BME280;25666;44.350;9.222;2023-12-20T12:30:03;101313.53;;;12.99;100.00
32324;BME280;25666;44.350;9.222;2023-12-20T12:32:36;101312.00;;;13.01;100.00
32324;BME280;25666;44.350;9.222;2023-12-20T12:35:05;101302.22;;;13.07;100.00
32324;BME280;25666;44.350;9.222;2023-12-20T12:37:34;101311.41;;;13.08;100.00
32324;BME280;25666;44.350;9.222;2023-12-20T12:40:03;101317.00;;;13.08;100.00
32324;BME280;25666;44.350;9.222;2023-12-20T12:42:31;101306.16;;;13.06;100.00
32324;BME280;25666;44.350;9.222;2023-12-20T12:44:57;101299.41;;;13.07;100.00
32324;BME280;25666;44.350;9.222;2023-12-20T12:47:22;101300.50;;;13.03;100.00
32324;BME280;25666;44.350;9.222;2023-12-20T12:49:51;101297.13;;;13.09;100.00